Time,TemperatureF,DewpointF,PressureIn,WindDirection,WindDirectionDegrees,WindSpeedMPH,WindSpeedGustMPH,Humidity,HourlyPrecipIn,Conditions,Clouds,dailyrainin,SoftwareType,DateUTC
2013-01-19 00:13:00,27.9,22.0,30.56,SSW,207,11.0,-999.0,79,-99.99,,,0.00,weatherlink.com 1.10,2013-01-19 05:13:00,
2013-01-19 00:28:00,27.9,22.0,30.55,SW,221,12.0,-999.0,79,-99.99,,,0.00,weatherlink.com 1.10,2013-01-19 05:28:00,
2013-01-19 00:43:00,28.4,22.0,30.55,South,188,10.0,-999.0,77,-99.99,,,0.00,weatherlink.com 1.10,2013-01-19 05:43:00,
2013-01-19 00:58:00,28.9,22.0,30.55,SSW,207,13.0,-999.0,75,-99.99,,,0.00,weatherlink.com 1.10,2013-01-19 05:58:00,
2013-01-19 01:13:00,29.3,22.0,30.54,SSW,200,8.0,-999.0,74,-99.99,,,0.00,weatherlink.com 1.10,2013-01-19 06:13:00,
2013-01-19 01:28:00,29.3,22.0,30.54,SSW,198,10.0,-999.0,75,-99.99,,,0.00,weatherlink.com 1.10,2013-01-19 06:28:00,
2013-01-19 01:43:00,29.3,22.0,30.53,SSW,211,12.0,-999.0,74,-99.99,,,0.00,weatherlink.com 1.10,2013-01-19 06:43:00,
2013-01-19 01:58:00,29.4,22.0,30.54,WSW,241,7.0,-999.0,74,-99.99,,,0.00,weatherlink.com 1.10,2013-01-19 06:58:00,
2013-01-19 02:13:00,29.3,22.0,30.54,WSW,240,12.0,-999.0,74,-99.99,,,0.00,weatherlink.com 1.10,2013-01-19 07:13:00,
2013-01-19 02:28:00,29.2,22.0,30.53,WSW,253,5.0,-999.0,73,-99.99,,,0.00,weatherlink.com 1.10,2013-01-19 07:28:00,
2013-01-19 02:43:00,29.7,22.0,30.53,West,263,5.0,-999.0,73,-99.99,,,0.00,weatherlink.com 1.10,2013-01-19 07:43:00,
2013-01-19 02:58:00,31.2,22.0,30.53,West,262,9.0,-999.0,70,-99.99,,,0.00,weatherlink.com 1.10,2013-01-19 07:58:00,
2013-01-19 03:13:00,31.2,22.0,30.52,SW,218,10.0,-999.0,69,-99.99,,,0.00,weatherlink.com 1.10,2013-01-19 08:13:00,
2013-01-19 03:28:00,31.0,22.0,30.52,SSW,207,13.0,-999.0,69,-99.99,,,0.00,weatherlink.com 1.10,2013-01-19 08:28:00,
2013-01-19 03:43:00,30.4,22.0,30.52,South,175,8.0,-999.0,71,-99.99,,,0.00,weatherlink.com 1.10,2013-01-19 08:43:00,
2013-01-19 03:58:00,28.3,22.0,30.52,SSW,203,6.0,-999.0,76,-99.99,,,0.00,weatherlink.com 1.10,2013-01-19 08:58:00,
2013-01-19 04:13:00,27.6,21.0,30.52,WSW,244,5.0,-999.0,77,-99.99,,,0.00,weatherlink.com 1.10,2013-01-19 09:13:00,
2013-01-19 04:28:00,27.0,21.0,30.52,SW,235,5.0,-999.0,77,-99.99,,,0.00,weatherlink.com 1.10,2013-01-19 09:28:00,
2013-01-19 04:43:00,27.0,21.0,30.52,WSW,254,7.0,-999.0,78,-99.99,,,0.00,weatherlink.com 1.10,2013-01-19 09:43:00,
2013-01-19 04:58:00,26.8,21.0,30.52,SSW,211,8.0,-999.0,77,-99.99,,,0.00,weatherlink.com 1.10,2013-01-19 09:58:00,
2013-01-19 05:13:00,26.5,23.0,30.51,SW,217,9.0,-999.0,85,-99.99,,,0.00,weatherlink.com 1.10,2013-01-19 10:13:00,
2013-01-19 05:28:00,26.3,21.0,30.51,SSW,209,8.0,-999.0,79,-99.99,,,0.00,weatherlink.com 1.10,2013-01-19 10:28:00,
2013-01-19 05:43:00,26.2,21.0,30.51,SSW,211,4.0,-999.0,80,-99.99,,,0.00,weatherlink.com 1.10,2013-01-19 10:43:00,
2013-01-19 05:58:00,26.0,21.0,30.50,West,264,9.0,-999.0,80,-99.99,,,0.00,weatherlink.com 1.10,2013-01-19 10:58:00,
2013-01-19 06:13:00,26.0,21.0,30.50,West,273,8.0,-999.0,81,-99.99,,,0.00,weatherlink.com 1.10,2013-01-19 11:13:00,
2013-01-19 07:58:00,29.8,22.0,30.49,SSW,209,11.0,-999.0,72,-99.99,,,0.00,weatherlink.com 1.10,2013-01-19 12:58:00,
2013-01-19 08:13:00,32.2,20.0,30.50,SW,222,11.0,-999.0,61,-99.99,,,0.00,weatherlink.com 1.10,2013-01-19 13:13:00,
2013-01-19 08:28:00,32.8,19.0,30.49,SSW,211,8.0,-999.0,57,-99.99,,,0.00,weatherlink.com 1.10,2013-01-19 13:28:00,
2013-01-19 08:43:00,32.9,18.0,30.49,SW,234,8.0,-999.0,55,-99.99,,,0.00,weatherlink.com 1.10,2013-01-19 13:43:00,
2013-01-19 08:58:00,33.2,18.0,30.50,SSW,202,10.0,-999.0,54,-99.99,,,0.00,weatherlink.com 1.10,2013-01-19 13:58:00,
2013-01-19 09:13:00,35.5,14.0,30.50,SSW,207,7.0,-999.0,42,-99.99,,,0.00,weatherlink.com 1.10,2013-01-19 14:13:00,
2013-01-19 09:43:00,37.8,12.0,30.50,WSW,248,8.0,-999.0,35,-99.99,,,0.00,weatherlink.com 1.10,2013-01-19 14:43:00,
2013-01-19 09:58:00,38.2,13.0,30.51,WSW,252,4.0,-999.0,35,-99.99,,,0.00,weatherlink.com 1.10,2013-01-19 14:58:00,
2013-01-19 10:13:00,38.6,13.0,30.50,WSW,250,5.0,-999.0,35,-99.99,,,0.00,weatherlink.com 1.10,2013-01-19 15:13:00,
2013-01-19 10:28:00,38.7,15.0,30.50,SW,225,6.0,-999.0,38,-99.99,,,0.00,weatherlink.com 1.10,2013-01-19 15:28:00,
2013-01-19 10:43:00,38.6,15.0,30.50,WSW,238,7.0,-999.0,38,-99.99,,,0.00,weatherlink.com 1.10,2013-01-19 15:43:00,
2013-01-19 10:58:00,39.7,16.0,30.49,South,191,7.0,-999.0,38,-99.99,,,0.00,weatherlink.com 1.10,2013-01-19 15:58:00,
2013-01-19 11:13:00,40.2,16.0,30.48,SW,236,7.0,-999.0,37,-99.99,,,0.00,weatherlink.com 1.10,2013-01-19 16:13:00,
2013-01-19 11:28:00,40.5,17.0,30.46,SW,230,5.0,-999.0,39,-99.99,,,0.00,weatherlink.com 1.10,2013-01-19 16:28:00,
2013-01-19 11:43:00,41.6,17.0,30.45,WSW,247,7.0,-999.0,37,-99.99,,,0.00,weatherlink.com 1.10,2013-01-19 16:43:00,
2013-01-19 11:58:00,42.2,16.0,30.44,WSW,240,5.0,-999.0,35,-99.99,,,0.00,weatherlink.com 1.10,2013-01-19 16:58:00,
2013-01-19 12:13:00,42.7,17.0,30.42,WSW,256,4.0,-999.0,36,-99.99,,,0.00,weatherlink.com 1.10,2013-01-19 17:13:00,
2013-01-19 12:28:00,41.8,22.0,30.41,South,188,6.0,-999.0,46,-99.99,,,0.00,weatherlink.com 1.10,2013-01-19 17:28:00,
2013-01-19 12:43:00,42.4,23.0,30.40,WSW,238,3.0,-999.0,46,-99.99,,,0.00,weatherlink.com 1.10,2013-01-19 17:43:00,
2013-01-19 12:58:00,43.0,23.0,30.39,West,273,3.0,-999.0,45,-99.99,,,0.00,weatherlink.com 1.10,2013-01-19 17:58:00,
2013-01-19 13:13:00,43.0,25.0,30.38,NNW,328,3.0,-999.0,49,-99.99,,,0.00,weatherlink.com 1.10,2013-01-19 18:13:00,
2013-01-19 13:28:00,43.4,27.0,30.37,WNW,291,0.0,-999.0,52,-99.99,,,0.00,weatherlink.com 1.10,2013-01-19 18:28:00,
2013-01-19 13:43:00,42.5,28.0,30.36,WNW,293,6.0,-999.0,56,-99.99,,,0.00,weatherlink.com 1.10,2013-01-19 18:43:00,
2013-01-19 14:28:00,42.2,29.0,30.34,West,263,6.0,-999.0,61,-99.99,,,0.00,weatherlink.com 1.10,2013-01-19 19:28:00,
2013-01-19 14:43:00,41.7,29.0,30.33,West,273,5.0,-999.0,61,-99.99,,,0.00,weatherlink.com 1.10,2013-01-19 19:43:00,
2013-01-19 14:58:00,42.2,29.0,30.32,NW,305,5.0,-999.0,59,-99.99,,,0.00,weatherlink.com 1.10,2013-01-19 19:58:00,
2013-01-19 15:13:00,41.9,29.0,30.32,WSW,248,7.0,-999.0,60,-99.99,,,0.00,weatherlink.com 1.10,2013-01-19 20:13:00,
2013-01-19 15:43:00,41.3,28.0,30.31,SSW,198,9.0,-999.0,59,-99.99,,,0.00,weatherlink.com 1.10,2013-01-19 20:43:00,
2013-01-19 16:13:00,41.6,28.0,30.30,SW,235,3.0,-999.0,59,-99.99,,,0.00,weatherlink.com 1.10,2013-01-19 21:13:00,
2013-01-19 16:58:00,40.7,27.0,30.30,SW,225,8.0,-999.0,58,-99.99,,,0.00,weatherlink.com 1.10,2013-01-19 21:58:00,
2013-01-19 17:13:00,40.6,27.0,30.29,WSW,254,7.0,-999.0,58,-99.99,,,0.00,weatherlink.com 1.10,2013-01-19 22:13:00,
2013-01-19 17:28:00,40.0,26.0,30.29,West,267,7.0,-999.0,58,-99.99,,,0.00,weatherlink.com 1.10,2013-01-19 22:28:00,
2013-01-19 17:43:00,38.9,26.0,30.28,West,269,5.0,-999.0,60,-99.99,,,0.00,weatherlink.com 1.10,2013-01-19 22:43:00,
2013-01-19 17:58:00,38.4,25.0,30.29,West,269,5.0,-999.0,60,-99.99,,,0.00,weatherlink.com 1.10,2013-01-19 22:58:00,
2013-01-19 18:58:00,37.3,26.0,30.29,SSW,201,7.0,-999.0,64,-99.99,,,0.00,weatherlink.com 1.10,2013-01-19 23:58:00,
2013-01-19 19:28:00,36.6,27.0,30.29,WSW,240,6.0,-999.0,67,-99.99,,,0.00,weatherlink.com 1.10,2013-01-20 00:28:00,
2013-01-19 19:43:00,36.3,26.0,30.28,SW,227,11.0,-999.0,67,-99.99,,,0.00,weatherlink.com 1.10,2013-01-20 00:43:00,
2013-01-19 19:58:00,36.0,26.0,30.28,SSE,165,11.0,-999.0,67,-99.99,,,0.00,weatherlink.com 1.10,2013-01-20 00:58:00,
2013-01-19 20:28:00,35.9,26.0,30.27,SW,234,10.0,-999.0,67,-99.99,,,0.00,weatherlink.com 1.10,2013-01-20 01:28:00,
2013-01-19 20:43:00,35.8,26.0,30.26,SW,221,11.0,-999.0,68,-99.99,,,0.00,weatherlink.com 1.10,2013-01-20 01:43:00,
2013-01-19 20:58:00,35.6,26.0,30.26,WSW,238,10.0,-999.0,68,-99.99,,,0.00,weatherlink.com 1.10,2013-01-20 01:58:00,
2013-01-19 21:13:00,35.8,26.0,30.25,SW,231,11.0,-999.0,67,-99.99,,,0.00,weatherlink.com 1.10,2013-01-20 02:13:00,
2013-01-19 21:28:00,36.2,27.0,30.25,WSW,246,7.0,-999.0,68,-99.99,,,0.00,weatherlink.com 1.10,2013-01-20 02:28:00,
2013-01-19 21:43:00,36.6,27.0,30.25,West,269,7.0,-999.0,68,-99.99,,,0.00,weatherlink.com 1.10,2013-01-20 02:43:00,
2013-01-19 21:58:00,37.7,26.0,30.24,WSW,240,10.0,-999.0,63,-99.99,,,0.00,weatherlink.com 1.10,2013-01-20 02:58:00,
2013-01-19 22:58:00,37.5,25.0,30.22,West,259,6.0,-999.0,62,-99.99,,,0.00,weatherlink.com 1.10,2013-01-20 03:58:00,
2013-01-19 23:28:00,40.3,17.0,30.20,WNW,289,14.0,-999.0,39,-99.99,,,0.00,weatherlink.com 1.10,2013-01-20 04:28:00,
2013-01-19 23:43:00,39.5,18.0,30.20,WNW,296,12.0,-999.0,42,-99.99,,,0.00,weatherlink.com 1.10,2013-01-20 04:43:00,
2013-01-19 23:58:00,39.5,17.0,30.20,West,271,14.0,-999.0,41,-99.99,,,0.00,weatherlink.com 1.10,2013-01-20 04:58:00,